Time;durP1;ratioP1;P1;durP2;ratioP2;P2;SDS_P1;SDS_P2;PMS_P1;PMS_P2;Temp;Humidity;BMP_temperature;BMP_pressure;BME280_temperature;BME280_humidity;BME280_pressure;Samples;Min_cycle;Max_cycle;Signal;HPM_P1;HPM_P2
2023/06/13 00:00:31;;;;;;;3.97;3.77;;;;;;;13.29;100.00;96821.75;4977727;28;20213;-65
2023/06/13 00:03:00;;;;;;;5.33;4.10;;;;;;;13.23;100.00;96827.91;4957774;28;20220;-64
2023/06/13 00:05:28;;;;;;;4.30;4.00;;;;;;;13.18;100.00;96822.41;4979213;28;20230;-66
2023/06/13 00:07:56;;;;;;;4.43;4.13;;;;;;;13.15;100.00;96820.97;4950192;28;20241;-65
2023/06/13 00:10:23;;;;;;;4.43;4.13;;;;;;;13.10;100.00;96820.78;4958801;28;20213;-64
2023/06/13 00:12:51;;;;;;;4.53;4.23;;;;;;;13.07;100.00;96823.03;4942872;28;20304;-65
2023/06/13 00:15:20;;;;;;;4.53;4.23;;;;;;;13.05;100.00;96820.59;4983977;28;20225;-66
2023/06/13 00:17:48;;;;;;;4.10;3.80;;;;;;;13.03;100.00;96812.03;4953177;28;20271;-65
2023/06/13 00:20:16;;;;;;;4.43;4.13;;;;;;;12.89;100.00;96795.28;4986177;28;20689;-64
2023/06/13 00:22:45;;;;;;;4.67;4.27;;;;;;;13.03;100.00;96807.50;4982368;28;20209;-65
2023/06/13 00:25:13;;;;;;;4.40;4.10;;;;;;;12.99;100.00;96808.16;4944832;28;20237;-64
2023/06/13 00:27:40;;;;;;;4.13;3.80;;;;;;;12.92;100.00;96808.16;4978591;28;20506;-65
2023/06/13 00:30:08;;;;;;;4.67;4.37;;;;;;;12.87;100.00;96806.09;4944286;28;20351;-64
2023/06/13 00:32:37;;;;;;;4.17;3.73;;;;;;;12.82;100.00;96803.25;4954285;28;20866;-68
2023/06/13 00:35:08;;;;;;;5.97;4.73;;;;;;;12.77;100.00;96800.41;4984881;28;20221;-67
2023/06/13 00:37:36;;;;;;;4.53;4.23;;;;;;;12.74;100.00;96804.31;4982662;28;20236;-67
2023/06/13 00:40:05;;;;;;;4.40;4.13;;;;;;;12.68;100.00;96807.78;4953036;28;20339;-67
2023/06/13 00:42:33;;;;;;;4.53;4.20;;;;;;;12.66;100.00;96809.03;4975176;28;20205;-66
2023/06/13 00:45:18;;;;;;;4.43;4.13;;;;;;;12.58;100.00;96802.06;4944046;28;20793;-66
2023/06/13 00:47:51;;;;;;;4.87;4.57;;;;;;;12.55;100.00;96799.81;4987154;28;20212;-66
2023/06/13 00:50:20;;;;;;;4.93;4.63;;;;;;;12.50;100.00;96796.97;4954349;28;20280;-65
2023/06/13 00:52:48;;;;;;;5.57;4.20;;;;;;;12.41;100.00;96788.38;4976218;28;20854;-66
2023/06/13 00:55:16;;;;;;;4.50;4.17;;;;;;;12.33;100.00;96777.97;4969021;28;20250;-64
2023/06/13 00:57:44;;;;;;;4.80;3.73;;;;;;;12.38;100.00;96792.28;4966827;28;20563;-67
2023/06/13 01:00:13;;;;;;;5.50;4.23;;;;;;;12.34;100.00;96792.91;4970177;28;20237;-65
2023/06/13 01:02:45;;;;;;;5.23;4.83;;;;;;;12.28;100.00;96783.88;4957359;28;20429;-67
2023/06/13 01:05:14;;;;;;;4.63;4.33;;;;;;;12.25;100.00;96786.97;4954709;28;20656;-65
2023/06/13 01:07:42;;;;;;;4.30;4.00;;;;;;;12.16;100.00;96784.50;4976001;28;20434;-66
2023/06/13 01:10:11;;;;;;;4.93;4.53;;;;;;;12.01;100.00;96766.13;4979771;28;20553;-65
2023/06/13 01:12:46;;;;;;;4.47;4.17;;;;;;;12.08;100.00;96782.06;4961574;28;20460;-66
2023/06/13 01:15:17;;;;;;;4.30;4.10;;;;;;;12.08;100.00;96792.69;4981145;28;20718;-66
2023/06/13 01:17:49;;;;;;;4.37;4.07;;;;;;;12.07;100.00;96785.75;4937858;28;20723;-65
2023/06/13 01:20:18;;;;;;;4.10;3.80;;;;;;;12.02;100.00;96793.50;4956322;28;20665;-65
2023/06/13 01:22:52;;;;;;;4.23;3.83;;;;;;;11.99;100.00;96786.72;4979760;28;20327;-67
2023/06/13 01:25:29;;;;;;;4.97;4.57;;;;;;;12.03;100.00;96792.47;4977165;28;20231;-65
2023/06/13 01:27:59;;;;;;;5.27;4.97;;;;;;;12.00;100.00;96788.38;4949357;28;20227;-67
2023/06/13 01:30:27;;;;;;;5.27;4.30;;;;;;;11.99;100.00;96785.91;4981016;28;20296;-66
2023/06/13 01:32:55;;;;;;;4.73;4.43;;;;;;;11.98;100.00;96781.63;4944065;28;20247;-66
2023/06/13 01:35:25;;;;;;;4.73;4.43;;;;;;;11.96;100.00;96781.00;4958283;28;20225;-64
2023/06/13 01:37:53;;;;;;;4.13;3.93;;;;;;;11.93;100.00;96779.56;4977085;28;20311;-66
2023/06/13 01:40:21;;;;;;;4.90;4.40;;;;;;;11.95;100.00;96776.72;4979079;28;20289;-65
2023/06/13 01:42:48;;;;;;;4.63;4.20;;;;;;;11.93;100.00;96776.06;4949627;28;20672;-66
2023/06/13 01:45:17;;;;;;;4.60;4.30;;;;;;;11.85;100.00;96775.25;4980839;28;20708;-65
2023/06/13 01:47:50;;;;;;;4.57;4.10;;;;;;;11.88;100.00;96769.53;4941125;28;20355;-67
2023/06/13 01:50:25;;;;;;;4.37;4.07;;;;;;;11.87;100.00;96785.69;4982653;28;20214;-65
2023/06/13 01:52:57;;;;;;;6.07;4.83;;;;;;;11.82;100.00;96775.66;4948271;28;20212;-67
2023/06/13 01:55:33;;;;;;;4.50;4.10;;;;;;;11.78;100.00;96771.78;4980393;28;20214;-66
2023/06/13 01:58:04;;;;;;;6.80;6.13;;;;;;;11.69;100.00;96765.03;4950214;28;20422;-65
2023/06/13 02:00:33;;;;;;;6.27;4.27;;;;;;;11.66;100.00;96770.75;4970932;28;20362;-66
2023/06/13 02:03:01;;;;;;;4.33;3.93;;;;;;;11.61;100.00;96768.69;4987145;28;20237;-67
2023/06/13 02:05:29;;;;;;;4.30;4.00;;;;;;;11.54;100.00;96765.22;4939825;28;20241;-66
2023/06/13 02:07:57;;;;;;;4.93;3.90;;;;;;;11.46;100.00;96768.84;4942992;28;20320;-67
2023/06/13 02:10:25;;;;;;;4.80;4.50;;;;;;;11.42;100.00;96763.16;4982764;28;20205;-67
2023/06/13 02:12:53;;;;;;;4.63;4.23;;;;;;;11.41;100.00;96760.69;4919483;28;20608;-63
2023/06/13 02:15:21;;;;;;;4.97;4.33;;;;;;;11.37;100.00;96768.22;5003706;28;20347;-66
2023/06/13 02:17:50;;;;;;;4.80;4.30;;;;;;;11.34;100.00;96768.59;4993736;28;20569;-65
2023/06/13 02:20:17;;;;;;;4.63;4.23;;;;;;;11.30;100.00;96772.66;4967131;28;20236;-66
2023/06/13 02:22:45;;;;;;;4.97;4.57;;;;;;;11.31;100.00;96773.50;4972544;28;20287;-63
2023/06/13 02:25:14;;;;;;;4.60;4.20;;;;;;;11.20;100.00;96769.59;4996493;28;20232;-66
2023/06/13 02:27:42;;;;;;;5.17;4.67;;;;;;;11.21;100.00;96766.75;4979024;28;20229;-65
2023/06/13 02:30:10;;;;;;;5.03;4.57;;;;;;;11.16;100.00;96771.78;4955928;28;20221;-66
2023/06/13 02:32:39;;;;;;;4.33;4.03;;;;;;;11.09;100.00;96761.19;4981711;28;20228;-66
2023/06/13 02:35:09;;;;;;;5.13;4.73;;;;;;;11.09;100.00;96763.00;4950529;28;20225;-64
2023/06/13 02:37:37;;;;;;;4.80;4.40;;;;;;;11.08;100.00;96769.31;4979823;28;20267;-64
2023/06/13 02:40:07;;;;;;;4.00;3.53;;;;;;;11.08;100.00;96764.03;4975306;28;20404;-65
2023/06/13 02:42:35;;;;;;;4.73;4.37;;;;;;;11.04;100.00;96760.13;4988535;28;20225;-64
2023/06/13 02:45:03;;;;;;;4.67;4.37;;;;;;;11.07;100.00;96751.78;4948832;28;20451;-65
2023/06/13 02:47:31;;;;;;;4.70;4.23;;;;;;;11.02;100.00;96749.75;4994922;28;20225;-65
2023/06/13 02:49:58;;;;;;;5.23;4.27;;;;;;;11.01;100.00;96756.06;4987738;28;20752;-66
2023/06/13 02:52:27;;;;;;;5.47;4.73;;;;;;;11.00;100.00;96746.47;4952299;28;20216;-66
2023/06/13 02:54:55;;;;;;;5.20;4.80;;;;;;;11.05;100.00;96756.47;4951797;28;20383;-67
2023/06/13 02:57:22;;;;;;;5.40;5.00;;;;;;;11.02;100.00;96754.22;4990154;28;20197;-64
2023/06/13 02:59:50;;;;;;;4.60;4.30;;;;;;;10.95;100.00;96748.88;4950849;28;20259;-65
2023/06/13 03:02:20;;;;;;;7.90;4.87;;;;;;;10.93;100.00;96746.44;4988875;28;20247;-65
2023/06/13 03:04:48;;;;;;;5.10;4.70;;;;;;;10.91;100.00;96755.59;4982275;28;20263;-65
2023/06/13 03:07:16;;;;;;;5.37;4.97;;;;;;;10.88;100.00;96740.06;4947745;28;20222;-66
2023/06/13 03:09:45;;;;;;;5.07;4.40;;;;;;;10.83;100.00;96738.03;4954595;28;20221;-66
2023/06/13 03:12:12;;;;;;;5.17;4.77;;;;;;;10.86;100.00;96750.88;4991550;28;20209;-67
2023/06/13 03:14:41;;;;;;;4.87;4.47;;;;;;;10.86;100.00;96743.75;4980365;28;20252;-66
2023/06/13 03:17:08;;;;;;;4.63;4.33;;;;;;;10.84;100.00;96742.31;4959010;28;20189;-66
2023/06/13 03:19:36;;;;;;;5.40;5.00;;;;;;;10.87;100.00;96741.91;4992405;28;20292;-64
2023/06/13 03:22:04;;;;;;;4.67;4.30;;;;;;;10.86;100.00;96737.63;4947162;28;21758;-64
2023/06/13 03:24:32;;;;;;;5.23;4.93;;;;;;;10.90;100.00;96738.88;4958580;28;20223;-63
2023/06/13 03:27:01;;;;;;;5.13;4.33;;;;;;;10.93;100.00;96740.28;4958585;28;20538;-62
2023/06/13 03:29:29;;;;;;;4.60;4.30;;;;;;;10.91;100.00;96737.88;4984438;28;20197;-65
2023/06/13 03:31:57;;;;;;;5.07;4.67;;;;;;;10.95;100.00;96738.25;4944506;28;20929;-63
2023/06/13 03:34:26;;;;;;;5.17;3.97;;;;;;;10.95;100.00;96738.25;4982945;28;20209;-64
2023/06/13 03:36:53;;;;;;;5.27;4.87;;;;;;;10.96;100.00;96738.09;4983212;28;20217;-64
2023/06/13 03:39:21;;;;;;;6.53;4.60;;;;;;;10.95;100.00;96730.31;4945901;28;20348;-63
2023/06/13 03:41:48;;;;;;;4.07;3.87;;;;;;;10.97;100.00;96747.66;4945761;28;20244;-62
2023/06/13 03:44:17;;;;;;;4.47;4.17;;;;;;;11.02;100.00;96746.25;4981591;28;20206;-64
2023/06/13 03:46:45;;;;;;;4.67;4.07;;;;;;;11.05;100.00;96748.50;4978477;28;21035;-62
2023/06/13 03:49:12;;;;;;;4.70;4.23;;;;;;;11.05;100.00;96751.16;4925342;28;20271;-62
2023/06/13 03:51:40;;;;;;;5.10;4.70;;;;;;;11.07;100.00;96746.47;4986244;28;20247;-62
2023/06/13 03:54:08;;;;;;;4.80;4.40;;;;;;;11.07;100.00;96744.66;4931253;28;20216;-62
2023/06/13 03:56:36;;;;;;;4.40;4.10;;;;;;;11.12;100.00;96744.03;4943076;28;20221;-63
2023/06/13 03:59:04;;;;;;;5.33;4.87;;;;;;;11.06;100.00;96739.53;4974588;28;20205;-63
2023/06/13 04:01:33;;;;;;;4.70;4.30;;;;;;;11.19;100.00;96755.53;4986191;28;20335;-64
2023/06/13 04:04:00;;;;;;;4.83;4.50;;;;;;;11.24;100.00;96747.78;4953400;28;20221;-63
2023/06/13 04:06:28;;;;;;;5.37;4.83;;;;;;;11.29;100.00;96740.03;4986564;28;20411;-64
2023/06/13 04:08:57;;;;;;;4.80;4.50;;;;;;;11.39;100.00;96737.03;4941423;28;20228;-64
2023/06/13 04:11:25;;;;;;;4.33;4.03;;;;;;;11.47;100.00;96743.16;4954107;28;20217;-63
2023/06/13 04:13:52;;;;;;;4.73;4.40;;;;;;;11.51;100.00;96733.78;4981263;28;20415;-64
2023/06/13 04:16:20;;;;;;;4.70;4.30;;;;;;;11.62;100.00;96737.69;4979078;28;20354;-63
2023/06/13 04:18:49;;;;;;;4.73;4.43;;;;;;;11.69;100.00;96730.53;4952837;28;20225;-64
2023/06/13 04:21:17;;;;;;;7.07;4.67;;;;;;;11.75;100.00;96724.41;4987080;28;20441;-64
2023/06/13 04:23:44;;;;;;;6.10;4.77;;;;;;;11.82;100.00;96722.56;4981273;28;20312;-62
2023/06/13 04:26:12;;;;;;;4.63;4.33;;;;;;;11.86;100.00;96729.13;4912689;28;20420;-61
2023/06/13 04:28:40;;;;;;;4.67;4.27;;;;;;;11.94;100.00;96736.06;4982555;28;20620;-65
2023/06/13 04:31:08;;;;;;;5.23;4.73;;;;;;;12.09;100.00;96727.94;4980081;28;20629;-64
2023/06/13 04:33:37;;;;;;;5.30;5.00;;;;;;;12.09;100.00;96737.72;4955353;28;20935;-65
2023/06/13 04:36:08;;;;;;;5.27;4.77;;;;;;;12.11;100.00;96733.03;4974279;28;20353;-63
2023/06/13 04:38:37;;;;;;;4.90;4.60;;;;;;;12.06;100.00;96744.28;4983052;28;20283;-64
2023/06/13 04:41:09;;;;;;;5.40;4.93;;;;;;;12.26;100.00;96740.78;4946622;28;20217;-65
2023/06/13 04:43:38;;;;;;;6.93;5.23;;;;;;;12.19;100.00;96743.47;4956180;28;20213;-64
2023/06/13 04:46:06;;;;;;;5.93;5.53;;;;;;;12.28;100.00;96742.22;4974100;28;21475;-65
2023/06/13 04:48:37;;;;;;;6.20;5.57;;;;;;;12.28;100.00;96742.22;4954184;28;20601;-66
2023/06/13 04:51:09;;;;;;;6.90;5.77;;;;;;;12.27;100.00;96743.25;4987992;28;20200;-65
2023/06/13 04:53:38;;;;;;;5.50;5.10;;;;;;;12.34;100.00;96751.22;4978606;28;20230;-65
2023/06/13 04:56:06;;;;;;;6.10;5.50;;;;;;;12.43;100.00;96751.81;4939500;28;20244;-65
2023/06/13 04:58:35;;;;;;;6.00;5.47;;;;;;;12.56;100.00;96749.16;4952224;28;20638;-66
2023/06/13 05:01:03;;;;;;;5.93;5.33;;;;;;;12.60;100.00;96749.53;4982488;28;20616;-64
2023/06/13 05:03:31;;;;;;;8.43;4.97;;;;;;;12.64;100.00;96744.63;4953824;28;21057;-65
2023/06/13 05:06:00;;;;;;;6.03;5.50;;;;;;;12.75;100.00;96749.28;4982788;28;20315;-65
2023/06/13 05:08:30;;;;;;;5.30;4.90;;;;;;;12.86;100.00;96750.50;4978018;28;21063;-65
2023/06/13 05:10:59;;;;;;;5.17;4.87;;;;;;;13.00;100.00;96748.63;4938329;28;20780;-64
2023/06/13 05:13:27;;;;;;;5.30;4.90;;;;;;;13.12;100.00;96741.59;4951126;28;21749;-63
2023/06/13 05:15:55;;;;;;;5.83;5.33;;;;;;;13.22;100.00;96749.16;4981020;28;20287;-65
2023/06/13 05:18:24;;;;;;;4.90;4.60;;;;;;;13.37;100.00;96748.03;4980554;28;20885;-64
2023/06/13 05:20:52;;;;;;;4.87;4.47;;;;;;;13.52;100.00;96745.13;4953490;28;20222;-64
2023/06/13 05:23:20;;;;;;;5.63;5.23;;;;;;;13.48;100.00;96750.06;4979243;28;20631;-65
2023/06/13 05:25:48;;;;;;;5.77;5.27;;;;;;;13.64;100.00;96754.09;4942805;28;20233;-64
2023/06/13 05:28:17;;;;;;;4.80;4.50;;;;;;;13.65;100.00;96753.06;4981025;28;20228;-64
2023/06/13 05:30:45;;;;;;;5.10;4.73;;;;;;;13.91;100.00;96750.44;4951729;28;20212;-65
2023/06/13 05:33:14;;;;;;;5.10;4.70;;;;;;;14.14;100.00;96741.84;4978067;28;20213;-64
2023/06/13 05:35:41;;;;;;;4.77;4.43;;;;;;;14.24;100.00;96744.03;4953171;28;20233;-65
2023/06/13 05:38:23;;;;;;;5.40;4.90;;;;;;;14.51;100.00;96739.25;4976146;28;20403;-65
2023/06/13 05:40:51;;;;;;;7.70;4.57;;;;;;;14.68;100.00;96736.84;4946668;28;20700;-63
2023/06/13 05:43:20;;;;;;;5.33;4.27;;;;;;;14.90;100.00;96747.09;4976818;28;20260;-63
2023/06/13 05:45:48;;;;;;;4.80;4.40;;;;;;;15.04;100.00;96751.25;4953372;28;20318;-64
2023/06/13 05:48:16;;;;;;;4.40;4.10;;;;;;;15.28;100.00;96751.34;4978702;28;20232;-63
2023/06/13 05:50:44;;;;;;;4.80;4.00;;;;;;;15.32;100.00;96741.84;4956409;28;20209;-62
2023/06/13 05:53:11;;;;;;;3.97;3.77;;;;;;;15.34;100.00;96746.97;4975476;28;20267;-63
2023/06/13 05:55:39;;;;;;;4.47;4.17;;;;;;;15.36;100.00;96746.78;4980951;28;20312;-64
2023/06/13 05:58:07;;;;;;;4.50;4.20;;;;;;;15.41;100.00;96749.56;4934760;28;20259;-62
2023/06/13 06:00:35;;;;;;;4.77;4.40;;;;;;;15.34;100.00;96755.00;4952155;28;20424;-63
2023/06/13 06:03:05;;;;;;;8.00;6.83;;;;;;;15.32;100.00;96757.88;4986415;28;20209;-63
2023/06/13 06:05:33;;;;;;;9.27;4.90;;;;;;;15.46;100.00;96757.72;4980231;28;20221;-64
2023/06/13 06:08:00;;;;;;;4.40;4.10;;;;;;;15.62;100.00;96757.06;4951029;28;20305;-64
2023/06/13 06:10:28;;;;;;;4.07;3.80;;;;;;;15.66;100.00;96757.44;4985253;28;20348;-64
2023/06/13 06:12:56;;;;;;;4.40;4.10;;;;;;;15.77;99.76;96763.88;4949452;28;20205;-63
2023/06/13 06:15:24;;;;;;;4.67;4.27;;;;;;;15.78;99.36;96757.50;4957353;28;20233;-64
2023/06/13 06:17:52;;;;;;;5.80;5.10;;;;;;;15.82;100.00;96761.34;4991657;28;20592;-64
2023/06/13 06:20:20;;;;;;;4.23;3.93;;;;;;;15.93;100.00;96762.44;4983607;28;20208;-58
2023/06/13 06:22:48;;;;;;;4.87;4.33;;;;;;;15.89;94.10;96754.06;4953006;28;20217;-59
2023/06/13 06:25:19;;;;;;;4.63;4.20;;;;;;;16.01;96.80;96769.28;4980057;28;20276;-56
2023/06/13 06:27:50;;;;;;;4.37;3.93;;;;;;;16.18;98.39;96764.94;4943431;28;20217;-58
2023/06/13 06:30:18;;;;;;;5.40;4.20;;;;;;;16.21;94.92;96768.97;4951888;28;20327;-58
2023/06/13 06:32:46;;;;;;;4.23;3.93;;;;;;;16.35;93.88;96759.72;4989505;28;20284;-60
2023/06/13 06:35:15;;;;;;;9.20;5.10;;;;;;;16.39;90.40;96772.63;4986436;28;20252;-61
2023/06/13 07:32:15;;;;;;;7.17;4.47;;;;;;;17.16;62.26;96773.50;5033872;27;21825;-59
2023/06/13 07:34:43;;;;;;;4.83;4.33;;;;;;;17.32;60.62;96769.28;5092455;28;20217;-54
2023/06/13 07:37:14;;;;;;;6.63;5.60;;;;;;;17.17;57.52;96767.09;5041181;28;21421;-58
2023/06/13 07:39:41;;;;;;;25.30;21.57;;;;;;;17.38;61.11;96770.19;5070603;28;20233;-56
2023/06/13 07:42:10;;;;;;;8.30;7.47;;;;;;;17.75;61.55;96767.94;5032453;28;20198;-56
2023/06/13 07:44:37;;;;;;;4.33;4.03;;;;;;;17.64;57.97;96758.09;5065580;28;20665;-59
2023/06/13 07:56:57;;;;;;;3.90;3.60;;;;;;;17.91;54.15;96761.00;4990047;27;20563;-58
2023/06/13 07:59:27;;;;;;;7.00;3.70;;;;;;;18.03;55.15;96760.16;5039938;28;20570;-57
2023/06/13 08:01:55;;;;;;;4.50;4.10;;;;;;;18.15;51.53;96755.53;4983709;28;20211;-57
2023/06/13 08:04:23;;;;;;;3.70;3.40;;;;;;;18.37;50.17;96752.94;5013776;28;21046;-56
2023/06/13 08:07:00;;;;;;;3.83;3.63;;;;;;;18.35;52.29;96740.81;5024736;28;20208;-58
2023/06/13 08:09:27;;;;;;;3.87;3.57;;;;;;;18.44;51.13;96738.53;5020300;28;20264;-56
2023/06/13 08:11:58;;;;;;;3.63;3.40;;;;;;;18.43;50.36;96734.22;5009353;28;20266;-56
2023/06/13 08:14:26;;;;;;;7.33;4.03;;;;;;;18.35;49.30;96732.75;5013489;28;20247;-57
2023/06/13 08:16:54;;;;;;;4.37;4.00;;;;;;;18.50;48.84;96735.69;4980945;28;20228;-57
2023/06/13 08:19:22;;;;;;;4.03;3.63;;;;;;;18.63;47.88;96733.72;4986924;28;20863;-54
2023/06/13 08:21:49;;;;;;;7.50;3.50;;;;;;;18.70;47.48;96728.97;5028238;28;20747;-58
2023/06/13 08:24:17;;;;;;;3.57;3.27;;;;;;;18.67;48.08;96724.09;5020534;28;20474;-57
2023/06/13 08:26:45;;;;;;;5.20;3.70;;;;;;;18.92;46.03;96718.25;5027072;28;20701;-55
2023/06/13 08:29:15;;;;;;;4.13;3.10;;;;;;;18.88;46.72;96711.75;4988269;28;20298;-52
2023/06/13 08:31:44;;;;;;;3.77;3.50;;;;;;;18.93;46.02;96708.34;5027591;28;20204;-57
2023/06/13 08:34:16;;;;;;;4.90;3.33;;;;;;;19.20;48.17;96708.41;4975254;28;20195;-57
2023/06/13 08:36:44;;;;;;;5.67;3.83;;;;;;;19.22;45.20;96708.97;4990077;28;20238;-56
2023/06/13 08:39:12;;;;;;;4.27;3.87;;;;;;;19.07;46.71;96706.94;5021956;28;20718;-54
2023/06/13 08:41:41;;;;;;;5.23;3.40;;;;;;;19.19;45.12;96706.00;5027094;28;20245;-56
2023/06/13 08:44:09;;;;;;;3.87;3.47;;;;;;;19.35;45.46;96694.34;4992982;28;21332;-57
2023/06/13 08:46:37;;;;;;;3.57;3.37;;;;;;;19.49;46.99;96704.69;5026083;28;20295;-56
2023/06/13 08:49:05;;;;;;;5.47;3.53;;;;;;;19.64;43.56;96702.16;4957198;28;20552;-56
2023/06/13 08:51:33;;;;;;;5.63;3.90;;;;;;;19.61;44.72;96697.31;4998805;28;20299;-57
2023/06/13 08:54:02;;;;;;;3.37;3.07;;;;;;;19.52;41.51;96704.22;5025929;28;20227;-54
2023/06/13 08:56:40;;;;;;;6.93;3.33;;;;;;;19.45;42.23;96714.31;5029386;28;20314;-56
2023/06/13 08:59:15;;;;;;;3.90;3.50;;;;;;;19.16;42.71;96683.13;5015635;28;20203;-55
2023/06/13 09:01:44;;;;;;;3.50;3.30;;;;;;;19.45;41.61;96688.28;4990455;28;20731;-50
2023/06/13 09:04:12;;;;;;;4.77;3.50;;;;;;;19.42;41.50;96694.16;4963524;28;20977;-57
2023/06/13 09:06:40;;;;;;;3.60;3.40;;;;;;;19.45;41.73;96690.97;4993261;28;20318;-52
2023/06/13 09:09:09;;;;;;;3.20;3.00;;;;;;;19.44;42.50;96692.03;5007339;28;20463;-53
2023/06/13 09:11:37;;;;;;;3.33;3.13;;;;;;;19.70;44.84;96678.03;5009206;28;20199;-55
2023/06/13 09:14:05;;;;;;;3.70;3.40;;;;;;;19.74;40.98;96688.03;5007314;28;21008;-56
2023/06/13 09:16:33;;;;;;;3.63;3.30;;;;;;;19.69;41.23;96677.19;4976547;28;21304;-56
2023/06/13 09:19:03;;;;;;;3.60;3.30;;;;;;;19.81;41.84;96682.41;4975511;28;20291;-59
2023/06/13 09:21:33;;;;;;;4.77;3.47;;;;;;;19.93;40.69;96691.16;4986199;28;20220;-59
2023/06/13 09:24:01;;;;;;;9.83;8.90;;;;;;;20.14;41.16;96683.25;5005911;28;20215;-57
2023/06/13 09:26:29;;;;;;;5.53;4.30;;;;;;;20.15;40.74;96668.72;5008880;28;20837;-57
2023/06/13 09:29:15;;;;;;;6.33;3.57;;;;;;;20.29;41.58;96674.47;5005572;28;20420;-59
2023/06/13 09:31:59;;;;;;;3.70;3.40;;;;;;;20.46;42.69;96679.69;4973414;28;20622;-58
2023/06/13 09:34:29;;;;;;;6.30;3.27;;;;;;;20.62;40.51;96677.06;5014618;28;20777;-55
2023/06/13 09:36:57;;;;;;;3.23;3.03;;;;;;;20.56;39.73;96678.94;4936931;28;20727;-58
2023/06/13 09:39:27;;;;;;;5.87;3.60;;;;;;;20.41;38.96;96684.22;5009104;28;20796;-59
2023/06/13 09:41:55;;;;;;;3.57;3.27;;;;;;;20.01;39.00;96681.78;5010347;28;20625;-58
2023/06/13 09:44:24;;;;;;;3.80;3.50;;;;;;;19.98;39.64;96673.44;5006256;28;21885;-55
2023/06/13 09:46:52;;;;;;;3.67;3.40;;;;;;;20.24;40.31;96674.44;4982097;28;20675;-58
2023/06/13 09:49:20;;;;;;;3.83;3.40;;;;;;;20.38;38.88;96669.41;5005624;28;20444;-59
2023/06/13 09:51:52;;;;;;;3.80;3.50;;;;;;;20.35;40.05;96662.66;4965353;28;20228;-59
2023/06/13 09:54:21;;;;;;;3.30;3.00;;;;;;;20.43;39.98;96665.94;5005005;28;20239;-52
2023/06/13 09:56:48;;;;;;;4.53;4.23;;;;;;;20.37;38.93;96657.84;5014587;28;20228;-61
2023/06/13 09:59:17;;;;;;;6.20;5.60;;;;;;;20.57;38.25;96659.03;5003926;28;20352;-57
2023/06/13 10:01:47;;;;;;;3.90;2.97;;;;;;;20.71;38.95;96650.47;4979758;28;20211;-57
2023/06/13 10:04:15;;;;;;;3.77;3.47;;;;;;;20.76;37.76;96654.00;5014714;28;20454;-52
2023/06/13 10:06:42;;;;;;;3.57;3.27;;;;;;;20.63;38.74;96646.38;4973652;28;20370;-53
2023/06/13 10:09:12;;;;;;;3.17;2.97;;;;;;;20.65;38.51;96649.66;4979395;28;20954;-56
2023/06/13 10:11:41;;;;;;;3.93;3.63;;;;;;;20.81;38.31;96647.84;5007425;28;20299;-57
2023/06/13 10:14:11;;;;;;;2.67;2.57;;;;;;;20.85;38.74;96648.13;5003551;28;20456;-56
2023/06/13 10:16:40;;;;;;;3.57;3.27;;;;;;;20.81;39.08;96642.47;5012587;28;20264;-56
2023/06/13 10:19:25;;;;;;;4.07;3.73;;;;;;;20.98;38.32;96636.88;5010145;28;20227;-56
2023/06/13 10:21:53;;;;;;;4.00;3.40;;;;;;;20.99;38.26;96643.88;4967504;28;20239;-57
2023/06/13 10:24:22;;;;;;;3.37;3.07;;;;;;;21.10;38.66;96642.03;4980523;28;20304;-57
2023/06/13 10:26:54;;;;;;;5.60;3.67;;;;;;;20.72;38.97;96639.47;5011733;28;20667;-56
2023/06/13 10:29:41;;;;;;;5.63;3.13;;;;;;;20.74;38.29;96645.38;5007406;28;20964;-55
2023/06/13 10:32:21;;;;;;;2.93;2.73;;;;;;;21.04;38.58;96635.00;4976925;28;21247;-56
2023/06/13 10:35:02;;;;;;;3.20;2.90;;;;;;;21.35;38.29;96635.88;5013744;28;20246;-60
2023/06/13 10:37:53;;;;;;;2.73;2.63;;;;;;;21.10;38.69;96632.06;4964711;28;20224;-53
2023/06/13 10:40:36;;;;;;;3.93;3.27;;;;;;;20.98;39.08;96631.47;5004326;28;20204;-53
2023/06/13 10:43:07;;;;;;;3.53;3.23;;;;;;;21.23;36.20;96633.47;5008518;28;20204;-55
2023/06/13 10:45:36;;;;;;;3.60;3.30;;;;;;;21.51;34.54;96627.84;5009983;28;20640;-53
2023/06/13 10:48:06;;;;;;;3.83;3.30;;;;;;;21.60;35.61;96631.59;4978257;28;20495;-58
2023/06/13 10:50:37;;;;;;;3.20;3.00;;;;;;;21.77;37.01;96636.75;5009094;28;20721;-53
2023/06/13 10:53:04;;;;;;;7.07;3.53;;;;;;;21.47;37.49;96613.28;4970183;28;20208;-58
2023/06/13 10:55:38;;;;;;;4.00;3.07;;;;;;;21.45;36.78;96623.53;4984595;28;20236;-55
2023/06/13 10:58:11;;;;;;;3.57;3.27;;;;;;;21.65;36.90;96620.84;5006361;28;20228;-57
2023/06/13 11:00:40;;;;;;;3.60;3.30;;;;;;;21.74;36.41;96625.69;5003206;28;20208;-54
2023/06/13 11:03:09;;;;;;;3.67;3.40;;;;;;;21.42;37.21;96613.28;5010995;28;20291;-54
2023/06/13 11:05:38;;;;;;;3.83;3.60;;;;;;;21.74;38.27;96615.72;4979418;28;20310;-59
2023/06/13 11:08:14;;;;;;;3.30;3.10;;;;;;;21.88;37.43;96605.22;4960013;28;20871;-56
2023/06/13 11:10:45;;;;;;;3.47;3.23;;;;;;;21.98;35.90;96594.41;4982046;28;20205;-56
2023/06/13 11:13:17;;;;;;;2.97;2.73;;;;;;;21.96;36.37;96599.25;5004538;28;21047;-55
2023/06/13 11:15:45;;;;;;;3.47;3.17;;;;;;;22.20;35.71;96595.16;5004482;28;20644;-59
2023/06/13 11:18:32;;;;;;;4.47;4.07;;;;;;;22.30;35.29;96599.75;5011339;28;20323;-52
2023/06/13 11:21:00;;;;;;;4.57;3.40;;;;;;;22.34;38.06;96598.09;4978114;28;20311;-60
2023/06/13 11:23:39;;;;;;;3.93;3.40;;;;;;;22.31;36.92;96579.78;4965735;28;20228;-56
2023/06/13 11:26:08;;;;;;;3.50;3.27;;;;;;;22.24;38.80;96583.56;4972722;28;20853;-55
2023/06/13 11:28:36;;;;;;;4.43;3.50;;;;;;;22.27;36.76;96590.28;5007404;28;20236;-58
2023/06/13 11:31:04;;;;;;;4.30;3.57;;;;;;;22.24;35.99;96594.34;5006958;28;20291;-56
2023/06/13 11:33:36;;;;;;;3.93;3.60;;;;;;;22.51;37.43;96587.00;5012074;28;20211;-56
2023/06/13 11:36:05;;;;;;;3.33;3.13;;;;;;;22.07;37.31;96585.75;4979541;28;20781;-54
2023/06/13 11:38:35;;;;;;;4.30;3.90;;;;;;;22.49;36.12;96597.28;5006583;28;20231;-54
2023/06/13 11:41:03;;;;;;;3.43;3.13;;;;;;;22.29;36.31;96568.44;4937547;28;20240;-57
2023/06/13 11:43:33;;;;;;;3.70;3.40;;;;;;;22.67;35.29;96591.25;5003526;28;20299;-59
2023/06/13 11:46:02;;;;;;;3.33;3.03;;;;;;;22.74;35.96;96582.88;5005731;28;20680;-56
2023/06/13 11:48:30;;;;;;;5.80;3.07;;;;;;;23.04;34.57;96581.09;5013896;28;20204;-57
2023/06/13 11:51:18;;;;;;;4.37;4.07;;;;;;;23.28;35.60;96585.81;4951418;28;20219;-57
2023/06/13 11:53:50;;;;;;;3.30;3.10;;;;;;;23.20;35.05;96575.56;5005622;28;20201;-56
2023/06/13 11:56:19;;;;;;;3.17;2.97;;;;;;;23.07;33.66;96572.41;4918323;28;20319;-57
2023/06/13 11:58:48;;;;;;;3.87;3.57;;;;;;;23.37;34.22;96576.03;5006868;28;20252;-58
2023/06/13 12:01:17;;;;;;;3.70;3.40;;;;;;;23.47;34.76;96566.22;5005480;28;20208;-58
2023/06/13 12:03:46;;;;;;;3.40;3.10;;;;;;;23.52;35.48;96569.72;5010077;28;20874;-55
2023/06/13 12:06:14;;;;;;;6.13;3.53;;;;;;;23.83;34.82;96558.59;4980162;28;20231;-57
2023/06/13 12:08:44;;;;;;;5.33;3.20;;;;;;;23.92;34.69;96555.28;5006572;28;20227;-55
2023/06/13 12:11:13;;;;;;;3.53;3.20;;;;;;;23.99;32.91;96559.25;4924697;28;20259;-58
2023/06/13 12:13:54;;;;;;;5.90;3.20;;;;;;;23.76;33.76;96549.22;5006169;28;20230;-56
2023/06/13 12:16:24;;;;;;;3.60;3.30;;;;;;;23.80;34.14;96559.16;5007807;28;20224;-58
2023/06/13 12:18:53;;;;;;;3.93;3.63;;;;;;;23.78;32.91;96568.66;5014610;28;20224;-55
2023/06/13 12:21:22;;;;;;;4.33;3.40;;;;;;;23.58;34.24;96546.13;4977548;28;20241;-58
2023/06/13 12:23:50;;;;;;;3.57;3.37;;;;;;;24.32;35.66;96550.56;5003066;28;20200;-53
2023/06/13 12:26:18;;;;;;;4.07;3.67;;;;;;;24.83;34.43;96553.72;4937585;28;20228;-56
2023/06/13 12:28:47;;;;;;;4.10;2.80;;;;;;;25.52;32.43;96533.47;4974792;28;20228;-58
2023/06/13 12:31:16;;;;;;;4.57;3.23;;;;;;;26.90;30.22;96549.34;5008450;28;20205;-58
2023/06/13 12:33:44;;;;;;;3.57;3.27;;;;;;;26.80;30.21;96553.88;5011588;28;20202;-60
2023/06/13 12:36:12;;;;;;;4.50;3.70;;;;;;;27.84;28.18;96540.56;4977819;28;20674;-58
2023/06/13 12:38:41;;;;;;;5.43;3.37;;;;;;;28.91;27.41;96539.81;5005861;28;20193;-58
2023/06/13 12:41:14;;;;;;;4.10;3.80;;;;;;;30.13;26.53;96540.84;4936190;28;20212;-55
2023/06/13 12:43:45;;;;;;;5.03;3.43;;;;;;;29.28;26.31;96556.69;4987287;28;20291;-59